sensor_id;sensor_type;location;lat;lon;timestamp;P1;durP1;ratioP1;P2;durP2;ratioP2
15287;SDS011;7745;48.708;9.026;2023-03-17T00:00:47;6.33;;;2.83;;
15287;SDS011;7745;48.708;9.026;2023-03-17T00:03:18;3.30;;;2.60;;
15287;SDS011;7745;48.708;9.026;2023-03-17T00:05:47;5.67;;;3.13;;
15287;SDS011;7745;48.708;9.026;2023-03-17T00:08:18;3.47;;;2.93;;
15287;SDS011;7745;48.708;9.026;2023-03-17T00:10:46;4.30;;;3.30;;
15287;SDS011;7745;48.708;9.026;2023-03-17T00:13:13;4.70;;;3.33;;
15287;SDS011;7745;48.708;9.026;2023-03-17T00:15:40;3.63;;;2.87;;
15287;SDS011;7745;48.708;9.026;2023-03-17T00:18:09;4.53;;;2.53;;
15287;SDS011;7745;48.708;9.026;2023-03-17T00:20:40;3.10;;;2.60;;
15287;SDS011;7745;48.708;9.026;2023-03-17T00:23:08;3.93;;;2.97;;
15287;SDS011;7745;48.708;9.026;2023-03-17T00:25:39;5.70;;;3.13;;
15287;SDS011;7745;48.708;9.026;2023-03-17T00:28:08;4.70;;;3.10;;
15287;SDS011;7745;48.708;9.026;2023-03-17T00:30:41;3.20;;;2.90;;
15287;SDS011;7745;48.708;9.026;2023-03-17T00:33:08;3.57;;;3.20;;
15287;SDS011;7745;48.708;9.026;2023-03-17T00:35:36;3.57;;;2.93;;
15287;SDS011;7745;48.708;9.026;2023-03-17T00:38:09;4.50;;;3.30;;
15287;SDS011;7745;48.708;9.026;2023-03-17T00:40:39;4.40;;;2.93;;
15287;SDS011;7745;48.708;9.026;2023-03-17T00:43:07;4.03;;;2.73;;
15287;SDS011;7745;48.708;9.026;2023-03-17T00:45:34;3.47;;;2.77;;
15287;SDS011;7745;48.708;9.026;2023-03-17T00:48:01;4.87;;;3.10;;
15287;SDS011;7745;48.708;9.026;2023-03-17T00:50:28;3.70;;;2.80;;
15287;SDS011;7745;48.708;9.026;2023-03-17T00:52:56;3.87;;;3.03;;
15287;SDS011;7745;48.708;9.026;2023-03-17T00:55:24;3.83;;;2.87;;
15287;SDS011;7745;48.708;9.026;2023-03-17T00:57:52;5.27;;;3.00;;
15287;SDS011;7745;48.708;9.026;2023-03-17T01:00:20;3.57;;;2.53;;
15287;SDS011;7745;48.708;9.026;2023-03-17T01:02:50;6.50;;;3.07;;
15287;SDS011;7745;48.708;9.026;2023-03-17T01:05:17;3.57;;;2.80;;
15287;SDS011;7745;48.708;9.026;2023-03-17T01:07:45;4.77;;;2.77;;
15287;SDS011;7745;48.708;9.026;2023-03-17T01:10:17;5.03;;;3.10;;
15287;SDS011;7745;48.708;9.026;2023-03-17T01:12:48;4.23;;;2.93;;
15287;SDS011;7745;48.708;9.026;2023-03-17T01:15:15;5.37;;;2.90;;
15287;SDS011;7745;48.708;9.026;2023-03-17T01:17:43;3.50;;;3.20;;
15287;SDS011;7745;48.708;9.026;2023-03-17T01:20:13;5.20;;;3.70;;
15287;SDS011;7745;48.708;9.026;2023-03-17T01:22:42;4.47;;;3.90;;
15287;SDS011;7745;48.708;9.026;2023-03-17T01:25:09;3.57;;;3.07;;
15287;SDS011;7745;48.708;9.026;2023-03-17T01:27:37;4.77;;;3.47;;
15287;SDS011;7745;48.708;9.026;2023-03-17T01:30:08;4.40;;;3.10;;
15287;SDS011;7745;48.708;9.026;2023-03-17T01:32:46;4.27;;;3.27;;
15287;SDS011;7745;48.708;9.026;2023-03-17T01:35:14;4.97;;;2.70;;
15287;SDS011;7745;48.708;9.026;2023-03-17T01:37:41;6.50;;;2.93;;
15287;SDS011;7745;48.708;9.026;2023-03-17T01:40:10;4.57;;;3.20;;
15287;SDS011;7745;48.708;9.026;2023-03-17T01:42:40;3.80;;;2.90;;
15287;SDS011;7745;48.708;9.026;2023-03-17T01:48:10;4.13;;;3.50;;
15287;SDS011;7745;48.708;9.026;2023-03-17T01:50:37;3.83;;;3.27;;
15287;SDS011;7745;48.708;9.026;2023-03-17T01:53:05;4.87;;;3.20;;
15287;SDS011;7745;48.708;9.026;2023-03-17T01:55:32;5.43;;;3.03;;
15287;SDS011;7745;48.708;9.026;2023-03-17T01:57:59;3.43;;;3.07;;
15287;SDS011;7745;48.708;9.026;2023-03-17T02:00:26;5.33;;;3.03;;
15287;SDS011;7745;48.708;9.026;2023-03-17T02:02:55;3.87;;;2.93;;
15287;SDS011;7745;48.708;9.026;2023-03-17T02:05:24;5.37;;;3.37;;
15287;SDS011;7745;48.708;9.026;2023-03-17T02:07:52;3.80;;;2.87;;
15287;SDS011;7745;48.708;9.026;2023-03-17T02:10:19;4.63;;;3.10;;
15287;SDS011;7745;48.708;9.026;2023-03-17T02:12:49;3.50;;;3.13;;
15287;SDS011;7745;48.708;9.026;2023-03-17T02:15:19;3.70;;;3.10;;
15287;SDS011;7745;48.708;9.026;2023-03-17T02:17:46;4.83;;;3.00;;
15287;SDS011;7745;48.708;9.026;2023-03-17T02:23:19;5.07;;;2.87;;
15287;SDS011;7745;48.708;9.026;2023-03-17T02:25:47;4.83;;;2.97;;
15287;SDS011;7745;48.708;9.026;2023-03-17T02:28:17;3.83;;;2.97;;
15287;SDS011;7745;48.708;9.026;2023-03-17T02:30:48;4.93;;;3.33;;
15287;SDS011;7745;48.708;9.026;2023-03-17T02:33:14;3.70;;;3.23;;
15287;SDS011;7745;48.708;9.026;2023-03-17T02:35:41;4.20;;;3.30;;
15287;SDS011;7745;48.708;9.026;2023-03-17T02:38:08;8.53;;;3.20;;
15287;SDS011;7745;48.708;9.026;2023-03-17T02:40:36;3.93;;;2.53;;
15287;SDS011;7745;48.708;9.026;2023-03-17T02:43:03;4.90;;;2.97;;
15287;SDS011;7745;48.708;9.026;2023-03-17T02:45:30;6.00;;;3.10;;
15287;SDS011;7745;48.708;9.026;2023-03-17T02:47:57;3.97;;;3.23;;
15287;SDS011;7745;48.708;9.026;2023-03-17T02:50:25;5.93;;;3.10;;
15287;SDS011;7745;48.708;9.026;2023-03-17T02:52:53;3.63;;;2.90;;
15287;SDS011;7745;48.708;9.026;2023-03-17T02:55:21;5.40;;;3.40;;
15287;SDS011;7745;48.708;9.026;2023-03-17T02:57:49;3.47;;;3.03;;
15287;SDS011;7745;48.708;9.026;2023-03-17T03:00:16;4.27;;;3.07;;
15287;SDS011;7745;48.708;9.026;2023-03-17T03:02:43;5.37;;;3.10;;
15287;SDS011;7745;48.708;9.026;2023-03-17T03:05:10;5.87;;;3.40;;
15287;SDS011;7745;48.708;9.026;2023-03-17T03:07:37;4.60;;;3.03;;
15287;SDS011;7745;48.708;9.026;2023-03-17T03:10:04;4.60;;;3.13;;
15287;SDS011;7745;48.708;9.026;2023-03-17T03:12:31;3.67;;;2.93;;
15287;SDS011;7745;48.708;9.026;2023-03-17T03:15:00;3.87;;;3.20;;
15287;SDS011;7745;48.708;9.026;2023-03-17T03:17:26;4.40;;;2.93;;
15287;SDS011;7745;48.708;9.026;2023-03-17T03:19:53;3.60;;;2.73;;
15287;SDS011;7745;48.708;9.026;2023-03-17T03:22:20;3.60;;;3.10;;
15287;SDS011;7745;48.708;9.026;2023-03-17T03:24:47;3.50;;;2.90;;
15287;SDS011;7745;48.708;9.026;2023-03-17T03:27:14;3.43;;;3.10;;
15287;SDS011;7745;48.708;9.026;2023-03-17T03:29:40;3.83;;;2.77;;
15287;SDS011;7745;48.708;9.026;2023-03-17T03:32:09;5.33;;;3.00;;
15287;SDS011;7745;48.708;9.026;2023-03-17T03:34:36;5.20;;;3.00;;
15287;SDS011;7745;48.708;9.026;2023-03-17T03:37:03;3.77;;;2.87;;
15287;SDS011;7745;48.708;9.026;2023-03-17T03:39:30;5.37;;;3.00;;
15287;SDS011;7745;48.708;9.026;2023-03-17T03:41:56;3.77;;;2.60;;
15287;SDS011;7745;48.708;9.026;2023-03-17T03:44:23;8.47;;;3.07;;
15287;SDS011;7745;48.708;9.026;2023-03-17T03:46:50;3.67;;;2.87;;
15287;SDS011;7745;48.708;9.026;2023-03-17T03:49:18;3.20;;;2.87;;
15287;SDS011;7745;48.708;9.026;2023-03-17T03:51:46;4.50;;;2.63;;
15287;SDS011;7745;48.708;9.026;2023-03-17T03:54:13;4.00;;;2.97;;
15287;SDS011;7745;48.708;9.026;2023-03-17T03:56:40;4.90;;;2.77;;
15287;SDS011;7745;48.708;9.026;2023-03-17T03:59:06;4.60;;;2.90;;
15287;SDS011;7745;48.708;9.026;2023-03-17T04:01:33;3.17;;;2.80;;
15287;SDS011;7745;48.708;9.026;2023-03-17T04:04:00;3.47;;;2.87;;
15287;SDS011;7745;48.708;9.026;2023-03-17T04:06:28;4.33;;;2.90;;
15287;SDS011;7745;48.708;9.026;2023-03-17T04:08:55;4.30;;;2.77;;
15287;SDS011;7745;48.708;9.026;2023-03-17T04:11:22;5.00;;;3.20;;
15287;SDS011;7745;48.708;9.026;2023-03-17T04:13:49;6.07;;;2.93;;
15287;SDS011;7745;48.708;9.026;2023-03-17T04:16:16;6.27;;;2.77;;
15287;SDS011;7745;48.708;9.026;2023-03-17T04:18:42;6.00;;;2.97;;
15287;SDS011;7745;48.708;9.026;2023-03-17T04:21:09;6.43;;;3.60;;
15287;SDS011;7745;48.708;9.026;2023-03-17T04:23:38;7.43;;;3.10;;
15287;SDS011;7745;48.708;9.026;2023-03-17T04:26:05;3.37;;;2.83;;
15287;SDS011;7745;48.708;9.026;2023-03-17T04:28:32;6.23;;;2.70;;
15287;SDS011;7745;48.708;9.026;2023-03-17T04:30:59;3.47;;;2.40;;
15287;SDS011;7745;48.708;9.026;2023-03-17T04:33:26;3.67;;;2.60;;
15287;SDS011;7745;48.708;9.026;2023-03-17T04:35:52;4.23;;;2.53;;
15287;SDS011;7745;48.708;9.026;2023-03-17T04:38:19;7.67;;;2.77;;
15287;SDS011;7745;48.708;9.026;2023-03-17T04:40:48;3.90;;;2.70;;
15287;SDS011;7745;48.708;9.026;2023-03-17T04:43:15;3.70;;;2.63;;
15287;SDS011;7745;48.708;9.026;2023-03-17T04:45:42;3.97;;;2.70;;
15287;SDS011;7745;48.708;9.026;2023-03-17T04:48:08;3.27;;;2.50;;
15287;SDS011;7745;48.708;9.026;2023-03-17T04:50:35;3.47;;;2.63;;
15287;SDS011;7745;48.708;9.026;2023-03-17T04:53:03;3.20;;;2.30;;
15287;SDS011;7745;48.708;9.026;2023-03-17T04:55:29;3.97;;;2.50;;
15287;SDS011;7745;48.708;9.026;2023-03-17T04:57:57;6.00;;;2.90;;
15287;SDS011;7745;48.708;9.026;2023-03-17T05:00:24;8.30;;;2.80;;
15287;SDS011;7745;48.708;9.026;2023-03-17T05:02:51;2.87;;;2.37;;
15287;SDS011;7745;48.708;9.026;2023-03-17T05:05:18;2.93;;;2.63;;
15287;SDS011;7745;48.708;9.026;2023-03-17T05:07:45;3.17;;;2.43;;
15287;SDS011;7745;48.708;9.026;2023-03-17T05:10:12;5.23;;;2.20;;
15287;SDS011;7745;48.708;9.026;2023-03-17T05:12:38;2.70;;;2.17;;
15287;SDS011;7745;48.708;9.026;2023-03-17T05:15:07;6.40;;;2.20;;
15287;SDS011;7745;48.708;9.026;2023-03-17T05:17:35;3.80;;;2.10;;
15287;SDS011;7745;48.708;9.026;2023-03-17T05:20:03;4.33;;;2.20;;
15287;SDS011;7745;48.708;9.026;2023-03-17T05:22:32;7.20;;;2.87;;
15287;SDS011;7745;48.708;9.026;2023-03-17T05:24:59;4.50;;;2.80;;
15287;SDS011;7745;48.708;9.026;2023-03-17T05:27:26;5.30;;;2.90;;
15287;SDS011;7745;48.708;9.026;2023-03-17T05:29:53;4.70;;;2.40;;
15287;SDS011;7745;48.708;9.026;2023-03-17T05:32:22;8.87;;;3.60;;
15287;SDS011;7745;48.708;9.026;2023-03-17T05:34:49;6.43;;;3.33;;
15287;SDS011;7745;48.708;9.026;2023-03-17T05:37:16;8.90;;;3.97;;
15287;SDS011;7745;48.708;9.026;2023-03-17T05:39:43;10.57;;;4.50;;
15287;SDS011;7745;48.708;9.026;2023-03-17T05:42:10;9.07;;;5.67;;
15287;SDS011;7745;48.708;9.026;2023-03-17T05:44:37;12.10;;;7.27;;
15287;SDS011;7745;48.708;9.026;2023-03-17T05:47:03;9.80;;;7.47;;
15287;SDS011;7745;48.708;9.026;2023-03-17T05:49:33;11.33;;;7.70;;
15287;SDS011;7745;48.708;9.026;2023-03-17T05:52:00;13.00;;;7.07;;
15287;SDS011;7745;48.708;9.026;2023-03-17T05:54:27;9.67;;;6.07;;
15287;SDS011;7745;48.708;9.026;2023-03-17T05:56:53;7.67;;;3.90;;
15287;SDS011;7745;48.708;9.026;2023-03-17T05:59:20;5.80;;;3.77;;
15287;SDS011;7745;48.708;9.026;2023-03-17T06:01:47;7.00;;;3.27;;
15287;SDS011;7745;48.708;9.026;2023-03-17T06:04:14;4.97;;;2.77;;
15287;SDS011;7745;48.708;9.026;2023-03-17T06:06:42;3.43;;;2.80;;
15287;SDS011;7745;48.708;9.026;2023-03-17T06:09:09;3.37;;;2.83;;
15287;SDS011;7745;48.708;9.026;2023-03-17T06:11:36;6.17;;;2.70;;
15287;SDS011;7745;48.708;9.026;2023-03-17T06:14:02;7.50;;;2.90;;
15287;SDS011;7745;48.708;9.026;2023-03-17T06:16:30;13.63;;;3.00;;
15287;SDS011;7745;48.708;9.026;2023-03-17T06:18:57;8.00;;;2.93;;
15287;SDS011;7745;48.708;9.026;2023-03-17T06:21:24;8.33;;;3.43;;
15287;SDS011;7745;48.708;9.026;2023-03-17T06:23:52;9.97;;;2.87;;
15287;SDS011;7745;48.708;9.026;2023-03-17T06:26:19;8.70;;;2.60;;
15287;SDS011;7745;48.708;9.026;2023-03-17T06:28:46;7.67;;;3.10;;
15287;SDS011;7745;48.708;9.026;2023-03-17T06:31:12;7.17;;;3.07;;
15287;SDS011;7745;48.708;9.026;2023-03-17T06:33:39;5.13;;;2.80;;
15287;SDS011;7745;48.708;9.026;2023-03-17T06:36:06;6.93;;;2.60;;
15287;SDS011;7745;48.708;9.026;2023-03-17T06:38:33;10.27;;;3.30;;
15287;SDS011;7745;48.708;9.026;2023-03-17T06:41:01;9.23;;;3.77;;
15287;SDS011;7745;48.708;9.026;2023-03-17T06:43:31;6.80;;;3.27;;
15287;SDS011;7745;48.708;9.026;2023-03-17T06:46:06;8.63;;;3.00;;
15287;SDS011;7745;48.708;9.026;2023-03-17T06:48:33;9.20;;;2.80;;
15287;SDS011;7745;48.708;9.026;2023-03-17T06:51:00;5.17;;;2.60;;
15287;SDS011;7745;48.708;9.026;2023-03-17T06:53:27;4.87;;;2.40;;
15287;SDS011;7745;48.708;9.026;2023-03-17T06:55:53;5.00;;;2.63;;
15287;SDS011;7745;48.708;9.026;2023-03-17T06:58:22;8.20;;;2.73;;
15287;SDS011;7745;48.708;9.026;2023-03-17T07:00:49;10.57;;;2.77;;
15287;SDS011;7745;48.708;9.026;2023-03-17T07:03:18;4.23;;;2.27;;
15287;SDS011;7745;48.708;9.026;2023-03-17T07:05:45;5.00;;;2.60;;
15287;SDS011;7745;48.708;9.026;2023-03-17T07:08:12;7.03;;;2.60;;
15287;SDS011;7745;48.708;9.026;2023-03-17T07:10:40;5.40;;;2.63;;
15287;SDS011;7745;48.708;9.026;2023-03-17T07:13:08;7.93;;;2.87;;
15287;SDS011;7745;48.708;9.026;2023-03-17T07:15:36;4.30;;;2.30;;
15287;SDS011;7745;48.708;9.026;2023-03-17T07:18:04;9.20;;;2.67;;
15287;SDS011;7745;48.708;9.026;2023-03-17T07:20:31;6.53;;;2.50;;
15287;SDS011;7745;48.708;9.026;2023-03-17T07:22:58;8.80;;;2.60;;
15287;SDS011;7745;48.708;9.026;2023-03-17T07:25:25;6.47;;;2.77;;
15287;SDS011;7745;48.708;9.026;2023-03-17T07:27:52;8.23;;;2.47;;
15287;SDS011;7745;48.708;9.026;2023-03-17T07:30:19;3.30;;;2.23;;
15287;SDS011;7745;48.708;9.026;2023-03-17T07:32:47;4.87;;;2.63;;
15287;SDS011;7745;48.708;9.026;2023-03-17T07:35:14;6.53;;;2.40;;
15287;SDS011;7745;48.708;9.026;2023-03-17T07:37:41;6.43;;;2.20;;
15287;SDS011;7745;48.708;9.026;2023-03-17T07:40:09;7.07;;;3.00;;
15287;SDS011;7745;48.708;9.026;2023-03-17T07:42:45;6.37;;;2.10;;
15287;SDS011;7745;48.708;9.026;2023-03-17T07:45:13;4.17;;;2.20;;
15287;SDS011;7745;48.708;9.026;2023-03-17T07:47:40;3.53;;;2.30;;
15287;SDS011;7745;48.708;9.026;2023-03-17T07:50:09;4.50;;;2.40;;
15287;SDS011;7745;48.708;9.026;2023-03-17T07:52:37;5.67;;;2.20;;
15287;SDS011;7745;48.708;9.026;2023-03-17T07:55:04;3.70;;;2.50;;
15287;SDS011;7745;48.708;9.026;2023-03-17T07:57:32;4.77;;;2.33;;
15287;SDS011;7745;48.708;9.026;2023-03-17T07:59:59;4.80;;;2.13;;
15287;SDS011;7745;48.708;9.026;2023-03-17T08:02:28;4.47;;;2.07;;
15287;SDS011;7745;48.708;9.026;2023-03-17T08:04:55;4.77;;;2.50;;
15287;SDS011;7745;48.708;9.026;2023-03-17T08:07:23;2.53;;;1.80;;
15287;SDS011;7745;48.708;9.026;2023-03-17T08:09:50;4.63;;;2.07;;
15287;SDS011;7745;48.708;9.026;2023-03-17T08:12:17;7.20;;;2.30;;
15287;SDS011;7745;48.708;9.026;2023-03-17T08:14:45;4.83;;;2.03;;
15287;SDS011;7745;48.708;9.026;2023-03-17T08:17:12;4.27;;;2.57;;
15287;SDS011;7745;48.708;9.026;2023-03-17T08:19:38;3.93;;;2.47;;
15287;SDS011;7745;48.708;9.026;2023-03-17T08:22:06;7.37;;;2.77;;
15287;SDS011;7745;48.708;9.026;2023-03-17T08:24:38;8.73;;;2.87;;
15287;SDS011;7745;48.708;9.026;2023-03-17T08:27:08;7.77;;;2.60;;
15287;SDS011;7745;48.708;9.026;2023-03-17T08:29:35;5.13;;;2.60;;
15287;SDS011;7745;48.708;9.026;2023-03-17T08:32:03;9.80;;;2.67;;
15287;SDS011;7745;48.708;9.026;2023-03-17T08:34:31;6.37;;;2.60;;
15287;SDS011;7745;48.708;9.026;2023-03-17T08:36:59;7.40;;;2.63;;
15287;SDS011;7745;48.708;9.026;2023-03-17T08:39:26;4.53;;;2.60;;
15287;SDS011;7745;48.708;9.026;2023-03-17T08:41:55;9.93;;;2.83;;
15287;SDS011;7745;48.708;9.026;2023-03-17T08:44:22;8.83;;;2.40;;
15287;SDS011;7745;48.708;9.026;2023-03-17T08:46:49;5.17;;;2.30;;
15287;SDS011;7745;48.708;9.026;2023-03-17T08:49:16;5.53;;;2.50;;
15287;SDS011;7745;48.708;9.026;2023-03-17T08:51:43;8.60;;;2.20;;
15287;SDS011;7745;48.708;9.026;2023-03-17T08:54:11;5.57;;;1.87;;
15287;SDS011;7745;48.708;9.026;2023-03-17T08:56:39;6.47;;;2.50;;
15287;SDS011;7745;48.708;9.026;2023-03-17T08:59:08;9.13;;;2.90;;
15287;SDS011;7745;48.708;9.026;2023-03-17T09:01:35;4.70;;;2.00;;
15287;SDS011;7745;48.708;9.026;2023-03-17T09:04:02;4.63;;;2.10;;
15287;SDS011;7745;48.708;9.026;2023-03-17T09:06:29;3.40;;;2.00;;
15287;SDS011;7745;48.708;9.026;2023-03-17T09:08:56;3.33;;;2.10;;
15287;SDS011;7745;48.708;9.026;2023-03-17T09:11:25;3.77;;;1.97;;
15287;SDS011;7745;48.708;9.026;2023-03-17T09:13:53;2.53;;;1.70;;
15287;SDS011;7745;48.708;9.026;2023-03-17T09:16:22;2.37;;;1.67;;
15287;SDS011;7745;48.708;9.026;2023-03-17T09:18:50;5.03;;;1.83;;
15287;SDS011;7745;48.708;9.026;2023-03-17T09:21:18;3.63;;;1.80;;
15287;SDS011;7745;48.708;9.026;2023-03-17T09:23:45;7.67;;;1.80;;
15287;SDS011;7745;48.708;9.026;2023-03-17T09:26:12;12.60;;;2.13;;
15287;SDS011;7745;48.708;9.026;2023-03-17T09:28:39;4.37;;;1.73;;
15287;SDS011;7745;48.708;9.026;2023-03-17T09:31:07;3.80;;;1.50;;
15287;SDS011;7745;48.708;9.026;2023-03-17T09:33:37;3.30;;;1.47;;
15287;SDS011;7745;48.708;9.026;2023-03-17T09:36:08;4.07;;;1.70;;
15287;SDS011;7745;48.708;9.026;2023-03-17T09:38:36;3.67;;;1.73;;
15287;SDS011;7745;48.708;9.026;2023-03-17T09:41:06;3.03;;;1.70;;
15287;SDS011;7745;48.708;9.026;2023-03-17T09:43:49;3.83;;;1.83;;
15287;SDS011;7745;48.708;9.026;2023-03-17T09:46:24;6.47;;;1.73;;
15287;SDS011;7745;48.708;9.026;2023-03-17T09:49:03;3.87;;;1.50;;
15287;SDS011;7745;48.708;9.026;2023-03-17T09:51:34;2.40;;;1.73;;
15287;SDS011;7745;48.708;9.026;2023-03-17T09:54:02;2.43;;;1.53;;
15287;SDS011;7745;48.708;9.026;2023-03-17T09:56:32;4.63;;;1.80;;
15287;SDS011;7745;48.708;9.026;2023-03-17T09:59:02;6.87;;;2.00;;
15287;SDS011;7745;48.708;9.026;2023-03-17T10:01:31;2.57;;;1.50;;
15287;SDS011;7745;48.708;9.026;2023-03-17T10:03:58;2.63;;;1.37;;
15287;SDS011;7745;48.708;9.026;2023-03-17T10:06:33;3.97;;;1.47;;
15287;SDS011;7745;48.708;9.026;2023-03-17T10:09:17;3.90;;;1.33;;
15287;SDS011;7745;48.708;9.026;2023-03-17T10:11:53;3.13;;;1.50;;
15287;SDS011;7745;48.708;9.026;2023-03-17T10:14:31;2.23;;;1.40;;
15287;SDS011;7745;48.708;9.026;2023-03-17T10:17:09;5.17;;;1.77;;
15287;SDS011;7745;48.708;9.026;2023-03-17T10:19:42;2.10;;;1.10;;
15287;SDS011;7745;48.708;9.026;2023-03-17T10:22:16;1.80;;;1.27;;
15287;SDS011;7745;48.708;9.026;2023-03-17T10:24:48;2.63;;;1.47;;
15287;SDS011;7745;48.708;9.026;2023-03-17T10:27:34;4.40;;;1.50;;
15287;SDS011;7745;48.708;9.026;2023-03-17T10:30:03;3.80;;;1.40;;
15287;SDS011;7745;48.708;9.026;2023-03-17T10:32:43;3.87;;;1.10;;
15287;SDS011;7745;48.708;9.026;2023-03-17T10:35:10;3.13;;;1.20;;
15287;SDS011;7745;48.708;9.026;2023-03-17T10:37:40;2.07;;;1.37;;
15287;SDS011;7745;48.708;9.026;2023-03-17T10:40:17;3.47;;;1.70;;
15287;SDS011;7745;48.708;9.026;2023-03-17T10:42:46;3.23;;;1.27;;
15287;SDS011;7745;48.708;9.026;2023-03-17T10:45:15;1.60;;;1.20;;
15287;SDS011;7745;48.708;9.026;2023-03-17T10:47:49;2.73;;;1.20;;
15287;SDS011;7745;48.708;9.026;2023-03-17T10:50:20;3.70;;;1.17;;
15287;SDS011;7745;48.708;9.026;2023-03-17T10:52:52;3.77;;;1.23;;
15287;SDS011;7745;48.708;9.026;2023-03-17T10:55:25;2.27;;;1.20;;
15287;SDS011;7745;48.708;9.026;2023-03-17T10:57:58;6.30;;;1.10;;
15287;SDS011;7745;48.708;9.026;2023-03-17T11:00:28;2.63;;;1.20;;
15287;SDS011;7745;48.708;9.026;2023-03-17T11:03:01;2.10;;;0.80;;
15287;SDS011;7745;48.708;9.026;2023-03-17T11:05:34;3.67;;;1.17;;
15287;SDS011;7745;48.708;9.026;2023-03-17T11:08:08;6.87;;;1.23;;
15287;SDS011;7745;48.708;9.026;2023-03-17T11:10:40;1.53;;;0.90;;
15287;SDS011;7745;48.708;9.026;2023-03-17T11:13:07;3.03;;;0.93;;
15287;SDS011;7745;48.708;9.026;2023-03-17T11:15:34;4.50;;;0.93;;
15287;SDS011;7745;48.708;9.026;2023-03-17T11:18:09;1.67;;;0.70;;
15287;SDS011;7745;48.708;9.026;2023-03-17T11:20:40;3.13;;;1.00;;
15287;SDS011;7745;48.708;9.026;2023-03-17T11:23:16;1.47;;;0.80;;
15287;SDS011;7745;48.708;9.026;2023-03-17T11:26:06;1.60;;;0.90;;
15287;SDS011;7745;48.708;9.026;2023-03-17T11:28:42;5.87;;;1.30;;
15287;SDS011;7745;48.708;9.026;2023-03-17T11:31:16;1.13;;;0.80;;
15287;SDS011;7745;48.708;9.026;2023-03-17T11:33:52;3.73;;;1.10;;
15287;SDS011;7745;48.708;9.026;2023-03-17T11:36:34;1.63;;;0.87;;
15287;SDS011;7745;48.708;9.026;2023-03-17T11:39:13;2.40;;;0.80;;
15287;SDS011;7745;48.708;9.026;2023-03-17T11:41:44;3.53;;;0.87;;
15287;SDS011;7745;48.708;9.026;2023-03-17T11:47:29;1.83;;;0.73;;
15287;SDS011;7745;48.708;9.026;2023-03-17T11:50:09;2.93;;;0.97;;
15287;SDS011;7745;48.708;9.026;2023-03-17T11:52:47;2.53;;;0.90;;
15287;SDS011;7745;48.708;9.026;2023-03-17T11:55:23;4.03;;;0.87;;
15287;SDS011;7745;48.708;9.026;2023-03-17T11:57:55;1.73;;;0.63;;
15287;SDS011;7745;48.708;9.026;2023-03-17T12:00:26;0.77;;;0.60;;
15287;SDS011;7745;48.708;9.026;2023-03-17T12:02:57;2.37;;;0.80;;
15287;SDS011;7745;48.708;9.026;2023-03-17T12:05:40;4.13;;;0.70;;
15287;SDS011;7745;48.708;9.026;2023-03-17T12:08:09;1.73;;;1.10;;
15287;SDS011;7745;48.708;9.026;2023-03-17T12:10:45;1.27;;;0.80;;
15287;SDS011;7745;48.708;9.026;2023-03-17T12:13:15;3.37;;;0.80;;
15287;SDS011;7745;48.708;9.026;2023-03-17T12:15:49;1.47;;;0.70;;
15287;SDS011;7745;48.708;9.026;2023-03-17T12:18:20;3.50;;;1.13;;
15287;SDS011;7745;48.708;9.026;2023-03-17T12:20:56;1.10;;;0.60;;
15287;SDS011;7745;48.708;9.026;2023-03-17T12:23:27;2.83;;;1.43;;
15287;SDS011;7745;48.708;9.026;2023-03-17T12:26:04;1.47;;;0.80;;
15287;SDS011;7745;48.708;9.026;2023-03-17T12:28:37;4.30;;;3.90;;
15287;SDS011;7745;48.708;9.026;2023-03-17T12:31:12;35.07;;;26.83;;
15287;SDS011;7745;48.708;9.026;2023-03-17T12:33:43;33.43;;;27.87;;
15287;SDS011;7745;48.708;9.026;2023-03-17T12:36:15;15.63;;;13.13;;
15287;SDS011;7745;48.708;9.026;2023-03-17T12:38:44;7.00;;;3.87;;
15287;SDS011;7745;48.708;9.026;2023-03-17T12:41:24;5.37;;;2.43;;
15287;SDS011;7745;48.708;9.026;2023-03-17T12:44:08;1.97;;;1.10;;
15287;SDS011;7745;48.708;9.026;2023-03-17T12:46:51;3.43;;;0.90;;
15287;SDS011;7745;48.708;9.026;2023-03-17T12:49:47;1.90;;;0.80;;
15287;SDS011;7745;48.708;9.026;2023-03-17T12:55:23;1.07;;;0.70;;
15287;SDS011;7745;48.708;9.026;2023-03-17T12:57:58;1.47;;;0.80;;
15287;SDS011;7745;48.708;9.026;2023-03-17T13:00:27;2.57;;;0.60;;
15287;SDS011;7745;48.708;9.026;2023-03-17T13:03:07;2.73;;;0.90;;
15287;SDS011;7745;48.708;9.026;2023-03-17T13:05:44;2.00;;;0.60;;
15287;SDS011;7745;48.708;9.026;2023-03-17T13:08:14;3.37;;;1.00;;
15287;SDS011;7745;48.708;9.026;2023-03-17T13:10:46;0.87;;;0.60;;
15287;SDS011;7745;48.708;9.026;2023-03-17T13:16:24;2.27;;;0.70;;
15287;SDS011;7745;48.708;9.026;2023-03-17T13:19:11;3.27;;;0.70;;
15287;SDS011;7745;48.708;9.026;2023-03-17T13:21:50;1.77;;;0.73;;
15287;SDS011;7745;48.708;9.026;2023-03-17T13:33:16;1.27;;;0.87;;
15287;SDS011;7745;48.708;9.026;2023-03-17T13:35:51;0.60;;;0.50;;
15287;SDS011;7745;48.708;9.026;2023-03-17T13:38:29;1.73;;;0.50;;
15287;SDS011;7745;48.708;9.026;2023-03-17T13:41:12;5.13;;;0.80;;
15287;SDS011;7745;48.708;9.026;2023-03-17T13:44:00;1.47;;;0.80;;
15287;SDS011;7745;48.708;9.026;2023-03-17T13:46:42;1.87;;;0.80;;
15287;SDS011;7745;48.708;9.026;2023-03-17T13:49:13;1.63;;;0.60;;
15287;SDS011;7745;48.708;9.026;2023-03-17T13:51:48;2.50;;;0.80;;
15287;SDS011;7745;48.708;9.026;2023-03-17T13:54:21;1.37;;;0.60;;
15287;SDS011;7745;48.708;9.026;2023-03-17T13:56:56;1.83;;;0.80;;
15287;SDS011;7745;48.708;9.026;2023-03-17T13:59:30;1.53;;;0.60;;
15287;SDS011;7745;48.708;9.026;2023-03-17T14:02:09;0.90;;;0.60;;
15287;SDS011;7745;48.708;9.026;2023-03-17T14:04:44;1.10;;;0.73;;
15287;SDS011;7745;48.708;9.026;2023-03-17T14:07:17;5.90;;;1.10;;
15287;SDS011;7745;48.708;9.026;2023-03-17T14:09:49;1.53;;;1.10;;
15287;SDS011;7745;48.708;9.026;2023-03-17T14:12:18;4.20;;;2.20;;
15287;SDS011;7745;48.708;9.026;2023-03-17T14:14:49;3.90;;;1.57;;
15287;SDS011;7745;48.708;9.026;2023-03-17T14:17:23;2.53;;;1.20;;
15287;SDS011;7745;48.708;9.026;2023-03-17T14:20:00;2.07;;;1.20;;
15287;SDS011;7745;48.708;9.026;2023-03-17T14:22:41;1.87;;;0.90;;
15287;SDS011;7745;48.708;9.026;2023-03-17T14:25:13;2.53;;;1.50;;
15287;SDS011;7745;48.708;9.026;2023-03-17T14:27:42;1.87;;;1.20;;
15287;SDS011;7745;48.708;9.026;2023-03-17T14:30:15;2.97;;;0.80;;
15287;SDS011;7745;48.708;9.026;2023-03-17T14:32:46;1.33;;;0.80;;
15287;SDS011;7745;48.708;9.026;2023-03-17T14:35:16;2.73;;;0.90;;
15287;SDS011;7745;48.708;9.026;2023-03-17T14:37:43;2.93;;;0.97;;
15287;SDS011;7745;48.708;9.026;2023-03-17T14:40:17;1.60;;;0.80;;
15287;SDS011;7745;48.708;9.026;2023-03-17T14:42:49;3.83;;;1.20;;
15287;SDS011;7745;48.708;9.026;2023-03-17T14:45:18;3.27;;;1.10;;
15287;SDS011;7745;48.708;9.026;2023-03-17T14:47:48;1.60;;;1.00;;
15287;SDS011;7745;48.708;9.026;2023-03-17T14:50:17;1.37;;;0.80;;
15287;SDS011;7745;48.708;9.026;2023-03-17T14:55:20;1.20;;;0.90;;
15287;SDS011;7745;48.708;9.026;2023-03-17T14:57:48;2.00;;;0.80;;
15287;SDS011;7745;48.708;9.026;2023-03-17T15:00:26;2.53;;;0.80;;
15287;SDS011;7745;48.708;9.026;2023-03-17T15:03:00;3.60;;;0.90;;
15287;SDS011;7745;48.708;9.026;2023-03-17T15:05:36;1.67;;;0.93;;
15287;SDS011;7745;48.708;9.026;2023-03-17T15:11:06;0.80;;;0.67;;
15287;SDS011;7745;48.708;9.026;2023-03-17T15:13:40;3.57;;;1.10;;
15287;SDS011;7745;48.708;9.026;2023-03-17T15:16:13;1.40;;;0.73;;
15287;SDS011;7745;48.708;9.026;2023-03-17T15:18:47;2.47;;;0.90;;
15287;SDS011;7745;48.708;9.026;2023-03-17T15:21:23;4.13;;;2.37;;
15287;SDS011;7745;48.708;9.026;2023-03-17T15:23:54;2.43;;;1.80;;
15287;SDS011;7745;48.708;9.026;2023-03-17T15:26:22;3.57;;;1.73;;
15287;SDS011;7745;48.708;9.026;2023-03-17T15:28:56;1.77;;;1.00;;
15287;SDS011;7745;48.708;9.026;2023-03-17T15:31:24;2.63;;;1.20;;
15287;SDS011;7745;48.708;9.026;2023-03-17T15:33:55;2.20;;;1.07;;
15287;SDS011;7745;48.708;9.026;2023-03-17T15:36:23;4.30;;;1.67;;
15287;SDS011;7745;48.708;9.026;2023-03-17T15:38:50;5.27;;;4.60;;
15287;SDS011;7745;48.708;9.026;2023-03-17T15:41:17;4.30;;;2.30;;
15287;SDS011;7745;48.708;9.026;2023-03-17T15:43:44;3.70;;;1.30;;
15287;SDS011;7745;48.708;9.026;2023-03-17T15:46:14;4.53;;;1.20;;